createdAt,value
2018-08-24T00:02:22.535Z,42.90
2018-08-24T00:04:50.104Z,42.90
2018-08-24T00:07:17.953Z,42.80
2018-08-24T00:09:51.416Z,42.80
2018-08-24T00:12:21.168Z,43.00
2018-08-24T00:14:49.128Z,42.80
2018-08-24T00:17:25.074Z,42.80
2018-08-24T00:19:52.756Z,42.50
2018-08-24T00:22:20.775Z,42.30
2018-08-24T00:24:48.873Z,42.30
2018-08-24T00:27:16.963Z,42.30
2018-08-24T00:29:44.989Z,42.20
2018-08-24T00:32:12.703Z,42.20
2018-08-24T00:34:41.026Z,42.30
2018-08-24T00:37:08.822Z,42.40
2018-08-24T00:39:37.709Z,42.40
2018-08-24T00:42:05.510Z,42.40
2018-08-24T00:44:34.029Z,42.50
2018-08-24T00:47:02.086Z,42.60
2018-08-24T00:49:30.412Z,42.70
2018-08-24T00:51:58.384Z,42.60
2018-08-24T00:54:26.176Z,43.00
2018-08-24T00:56:54.473Z,43.10
2018-08-24T00:59:22.744Z,43.10
2018-08-24T01:01:50.570Z,43.10
2018-08-24T01:04:25.303Z,43.20
2018-08-24T01:06:54.374Z,43.20
2018-08-24T01:09:22.523Z,43.20
2018-08-24T01:11:56.240Z,43.50
2018-08-24T01:14:24.295Z,43.80
2018-08-24T01:16:58.013Z,44.70
2018-08-24T01:19:25.719Z,44.10
2018-08-24T01:21:53.374Z,44.20
2018-08-24T01:24:25.791Z,44.30
2018-08-24T01:26:59.194Z,44.90
2018-08-24T01:29:27.181Z,45.30
2018-08-24T01:31:54.923Z,45.30
2018-08-24T01:34:22.819Z,45.20
2018-08-24T01:36:50.769Z,45.20
2018-08-24T01:39:18.473Z,45.20
2018-08-24T01:41:55.850Z,45.50
2018-08-24T01:44:24.632Z,45.20
2018-08-24T01:46:52.804Z,45.70
2018-08-24T01:49:21.109Z,45.90
2018-08-24T01:51:49.127Z,45.80
2018-08-24T01:54:16.929Z,45.70
2018-08-24T01:56:44.904Z,45.90
2018-08-24T01:59:13.503Z,45.30
2018-08-24T02:01:41.884Z,45.20
2018-08-24T02:04:09.927Z,45.90
2018-08-24T02:06:37.639Z,45.90
2018-08-24T02:09:11.682Z,45.70
2018-08-24T02:11:39.754Z,46.10
2018-08-24T02:14:10.241Z,46.20
2018-08-24T02:16:39.590Z,46.00
2018-08-24T02:19:13.676Z,45.70
2018-08-24T02:21:48.212Z,46.20
2018-08-24T02:24:15.856Z,46.10
2018-08-24T02:26:46.263Z,46.70
2018-08-24T02:29:14.253Z,46.20
2018-08-24T02:31:47.504Z,46.20
2018-08-24T02:34:15.195Z,46.70
2018-08-24T02:36:43.969Z,46.80
2018-08-24T02:39:15.043Z,46.60
2018-08-24T02:41:43.448Z,46.80
2018-08-24T02:44:11.660Z,46.80
2018-08-24T02:46:40.277Z,46.70
2018-08-24T02:49:08.679Z,46.60
2018-08-24T02:51:38.399Z,46.60
2018-08-24T02:54:06.019Z,46.30
2018-08-24T02:56:33.939Z,47.00
2018-08-24T02:59:02.319Z,47.00
2018-08-24T03:01:30.176Z,46.90
2018-08-24T03:03:58.565Z,46.80
2018-08-24T03:06:26.352Z,46.70
2018-08-24T03:08:54.099Z,46.80
2018-08-24T03:11:22.215Z,47.50
2018-08-24T03:13:50.224Z,47.10
2018-08-24T03:16:18.262Z,47.20
2018-08-24T03:18:46.614Z,47.50
2018-08-24T03:21:14.754Z,47.20
2018-08-24T03:23:42.722Z,47.60
2018-08-24T03:26:10.908Z,47.90
2018-08-24T03:28:38.624Z,47.80
2018-08-24T03:31:06.443Z,47.50
2018-08-24T03:33:34.476Z,47.90
2018-08-24T03:36:02.548Z,47.80
2018-08-24T03:38:30.451Z,48.80
2018-08-24T03:40:58.502Z,48.20
2018-08-24T03:43:26.354Z,48.40
2018-08-24T03:45:54.088Z,48.40
2018-08-24T03:48:24.559Z,48.50
2018-08-24T03:50:52.392Z,48.40
2018-08-24T03:53:21.437Z,48.50
2018-08-24T03:55:49.177Z,48.40
2018-08-24T03:58:16.888Z,48.30
2018-08-24T04:00:44.579Z,48.50
2018-08-24T04:03:12.321Z,48.80
2018-08-24T04:05:40.794Z,48.80
2018-08-24T04:08:08.570Z,49.40
2018-08-24T04:10:36.285Z,49.70
2018-08-24T04:13:04.148Z,49.60
2018-08-24T04:15:32.141Z,49.50
2018-08-24T04:18:00.108Z,49.50
2018-08-24T04:20:28.010Z,49.20
2018-08-24T04:22:55.812Z,49.80
2018-08-24T04:25:23.651Z,49.40
2018-08-24T04:27:51.369Z,49.30
2018-08-24T04:30:19.208Z,49.30
2018-08-24T04:32:47.211Z,49.20
2018-08-24T04:35:14.962Z,49.10
2018-08-24T04:37:42.772Z,49.20
2018-08-24T04:40:10.914Z,49.20
2018-08-24T04:42:50.514Z,49.20
2018-08-24T04:45:18.484Z,49.20
2018-08-24T04:47:46.257Z,49.10
2018-08-24T04:50:15.829Z,48.90
2018-08-24T04:52:44.054Z,49.10
2018-08-24T04:55:12.031Z,49.00
2018-08-24T04:57:40.356Z,49.10
2018-08-24T05:00:09.388Z,49.10
2018-08-24T05:02:39.205Z,49.10
2018-08-24T05:05:09.065Z,48.80
2018-08-24T05:07:37.620Z,49.10
2018-08-24T05:10:06.440Z,49.00
2018-08-24T05:12:34.835Z,49.00
2018-08-24T05:15:03.136Z,49.10
2018-08-24T05:17:31.207Z,48.90
2018-08-24T05:19:59.136Z,48.80
2018-08-24T05:22:26.777Z,48.80
2018-08-24T05:24:56.010Z,48.90
2018-08-24T05:27:24.722Z,48.70
2018-08-24T05:29:52.481Z,48.60
2018-08-24T05:32:21.656Z,48.30
2018-08-24T05:34:49.580Z,48.10
2018-08-24T05:37:17.942Z,47.80
2018-08-24T05:39:45.890Z,47.60
2018-08-24T05:42:14.017Z,48.10
2018-08-24T05:44:41.731Z,47.20
2018-08-24T05:47:10.767Z,47.50
2018-08-24T05:49:38.500Z,47.30
2018-08-24T05:52:06.505Z,47.30
2018-08-24T05:54:34.855Z,47.20
2018-08-24T05:57:03.565Z,46.80
2018-08-24T05:59:31.414Z,46.80
2018-08-24T06:01:59.620Z,46.60
2018-08-24T06:04:27.383Z,46.50
2018-08-24T06:06:55.622Z,46.60
2018-08-24T06:09:23.349Z,47.10
2018-08-24T06:11:51.029Z,46.40
2018-08-24T06:14:18.693Z,46.50
2018-08-24T06:17:52.276Z,46.10
2018-08-24T06:20:25.257Z,46.10
2018-08-24T06:22:53.372Z,44.80
2018-08-24T06:25:21.065Z,43.90
2018-08-24T06:27:48.688Z,43.60
2018-08-24T06:30:16.336Z,43.60
2018-08-24T06:32:44.140Z,43.70
2018-08-24T06:35:13.073Z,43.10
2018-08-24T06:37:40.959Z,42.60
2018-08-24T06:40:08.894Z,42.20
2018-08-24T06:42:36.538Z,41.90
2018-08-24T06:45:05.255Z,41.40
2018-08-24T06:47:34.459Z,41.20
2018-08-24T06:50:02.549Z,41.70
2018-08-24T06:52:30.480Z,41.40
2018-08-24T06:54:59.686Z,41.30
2018-08-24T06:57:35.873Z,41.10
2018-08-24T07:00:03.663Z,40.60
2018-08-24T07:02:32.238Z,40.40
2018-08-24T07:05:03.213Z,39.90
2018-08-24T07:07:30.998Z,39.60
2018-08-24T07:09:58.632Z,39.50
2018-08-24T07:12:28.788Z,39.30
2018-08-24T07:14:57.747Z,39.20
2018-08-24T07:17:44.398Z,38.70
2018-08-24T07:20:22.050Z,39.20
2018-08-24T07:22:50.357Z,39.40
2018-08-24T07:25:18.023Z,38.90
2018-08-24T07:27:46.553Z,38.80
2018-08-24T07:30:14.193Z,38.50
2018-08-24T07:32:41.989Z,35.80
2018-08-24T07:35:09.874Z,37.10
2018-08-24T07:37:37.483Z,36.10
2018-08-24T07:43:02.921Z,34.70
2018-08-24T07:45:36.022Z,33.90
2018-08-24T07:48:04.739Z,33.90
2018-08-24T07:50:32.379Z,34.30
2018-08-24T07:53:02.354Z,35.10
2018-08-24T07:55:31.983Z,33.80
2018-08-24T07:57:59.886Z,32.20
2018-08-24T08:00:29.862Z,32.00
2018-08-24T08:02:57.890Z,32.10
2018-08-24T08:05:25.609Z,32.20
2018-08-24T08:07:56.755Z,32.00
2018-08-24T08:10:29.379Z,31.50
2018-08-24T08:12:58.387Z,31.50
2018-08-24T08:15:26.219Z,31.40
2018-08-24T08:17:53.835Z,31.00
2018-08-24T08:20:23.548Z,30.80
2018-08-24T08:22:51.840Z,30.70
2018-08-24T08:25:19.678Z,30.90
2018-08-24T08:27:47.451Z,31.00
2018-08-24T08:30:15.271Z,30.70
2018-08-24T08:32:43.260Z,30.40
2018-08-24T08:35:11.024Z,29.80
2018-08-24T08:37:38.732Z,30.00
2018-08-24T08:40:06.445Z,29.70
2018-08-24T08:42:34.302Z,29.80
2018-08-24T08:45:02.167Z,29.90
2018-08-24T08:47:29.923Z,29.50
2018-08-24T08:49:57.653Z,28.20
2018-08-24T08:52:25.392Z,28.20
2018-08-24T08:54:53.063Z,28.00
2018-08-24T08:57:20.804Z,28.40
2018-08-24T08:59:56.063Z,28.20
2018-08-24T09:02:23.744Z,28.30
2018-08-24T09:04:52.025Z,28.20
2018-08-24T09:07:20.863Z,28.30
2018-08-24T09:09:48.628Z,27.10
2018-08-24T09:12:17.652Z,26.70
2018-08-24T09:14:46.116Z,26.90
2018-08-24T09:17:19.520Z,27.60
2018-08-24T09:19:52.882Z,29.00
2018-08-24T09:22:26.218Z,29.30
2018-08-24T09:24:59.651Z,29.80
2018-08-24T09:27:30.596Z,29.90
2018-08-24T09:30:04.684Z,30.00
2018-08-24T09:32:32.782Z,32.10
2018-08-24T09:35:00.385Z,32.40
2018-08-24T09:37:35.671Z,32.70
2018-08-24T09:40:04.852Z,35.20
2018-08-24T09:42:33.101Z,34.70
2018-08-24T09:45:00.697Z,36.30
2018-08-24T09:47:33.845Z,37.40
2018-08-24T09:50:07.115Z,40.40
2018-08-24T09:52:34.822Z,39.80
2018-08-24T09:55:02.585Z,40.30
2018-08-24T09:57:30.719Z,41.70
2018-08-24T09:59:58.578Z,42.30
2018-08-24T10:02:31.866Z,42.50
2018-08-24T10:06:02.521Z,42.30
2018-08-24T10:08:34.724Z,42.60
2018-08-24T10:11:03.129Z,41.90
2018-08-24T10:13:30.760Z,42.50
2018-08-24T10:15:58.446Z,42.50
2018-08-24T10:18:26.091Z,42.80
2018-08-24T10:20:53.663Z,42.40
2018-08-24T10:23:21.222Z,42.40
2018-08-24T10:25:48.831Z,42.40
2018-08-24T10:28:16.487Z,42.70
2018-08-24T10:30:44.419Z,41.40
2018-08-24T10:33:12.080Z,42.80
2018-08-24T10:35:39.715Z,43.00
2018-08-24T10:38:07.415Z,44.20
2018-08-24T10:40:34.934Z,44.60
2018-08-24T10:43:02.587Z,44.70
2018-08-24T10:45:30.306Z,46.30
2018-08-24T10:47:58.018Z,44.30
2018-08-24T10:50:25.726Z,41.70
2018-08-24T10:52:53.389Z,40.70
2018-08-24T10:55:21.124Z,41.80
2018-08-24T10:57:48.787Z,42.70
2018-08-24T11:00:16.455Z,43.00
2018-08-24T11:02:44.176Z,41.40
2018-08-24T11:05:12.006Z,40.90
2018-08-24T11:07:39.792Z,42.30
2018-08-24T11:10:07.389Z,40.90
2018-08-24T11:12:35.442Z,42.90
2018-08-24T11:15:05.309Z,43.00
2018-08-24T11:17:38.600Z,41.70
2018-08-24T11:20:06.260Z,42.20
2018-08-24T11:22:33.928Z,40.80
2018-08-24T11:25:01.803Z,42.20
2018-08-24T11:27:29.428Z,40.60
2018-08-24T11:29:57.188Z,41.90
2018-08-24T11:32:26.811Z,38.30
2018-08-24T11:34:54.858Z,38.10
2018-08-24T11:37:22.855Z,41.10
2018-08-24T11:39:50.732Z,40.00
2018-08-24T11:42:18.826Z,39.00
2018-08-24T11:44:46.479Z,38.00
2018-08-24T11:47:18.583Z,37.70
2018-08-24T11:49:48.604Z,37.10
2018-08-24T11:52:16.487Z,38.30
2018-08-24T11:54:44.251Z,38.50
2018-08-24T11:57:11.980Z,37.40
2018-08-24T11:59:39.712Z,36.80
2018-08-24T12:02:07.207Z,37.70
2018-08-24T12:04:35.197Z,37.40
2018-08-24T12:07:03.047Z,34.90
2018-08-24T12:09:31.072Z,37.10
2018-08-24T12:11:59.114Z,36.30
2018-08-24T12:14:28.034Z,35.80
2018-08-24T12:16:55.716Z,33.80
2018-08-24T12:19:23.395Z,34.70
2018-08-24T12:21:51.323Z,33.40
2018-08-24T12:24:19.721Z,33.80
2018-08-24T12:26:47.375Z,33.70
2018-08-24T12:29:15.148Z,33.40
2018-08-24T12:31:43.232Z,34.40
2018-08-24T12:34:11.035Z,32.00
2018-08-24T12:36:39.891Z,32.60
2018-08-24T12:39:09.251Z,32.40
2018-08-24T12:41:37.054Z,31.70
2018-08-24T12:44:05.027Z,30.30
2018-08-24T12:46:32.692Z,29.90
2018-08-24T12:49:00.349Z,29.70
2018-08-24T12:51:28.782Z,30.00
2018-08-24T12:53:57.052Z,29.80
2018-08-24T12:56:24.679Z,31.10
2018-08-24T12:58:52.783Z,29.20
2018-08-24T13:01:22.276Z,29.80
2018-08-24T13:03:51.016Z,29.10
2018-08-24T13:06:19.607Z,29.10
2018-08-24T13:08:47.636Z,29.30
2018-08-24T13:11:15.359Z,29.70
2018-08-24T13:13:44.048Z,29.60
2018-08-24T13:16:11.756Z,29.60
2018-08-24T13:18:42.011Z,29.60
2018-08-24T13:21:10.226Z,29.30
2018-08-24T13:23:37.916Z,29.70
2018-08-24T13:26:06.097Z,29.60
2018-08-24T13:28:33.783Z,29.50
2018-08-24T13:31:01.505Z,29.90
2018-08-24T13:33:29.699Z,29.80
2018-08-24T13:35:57.316Z,29.50
2018-08-24T13:38:24.967Z,29.70
2018-08-24T13:40:52.866Z,29.50
2018-08-24T13:43:20.480Z,29.30
2018-08-24T13:45:48.247Z,29.20
2018-08-24T13:48:16.336Z,28.10
2018-08-24T13:50:44.489Z,28.00
2018-08-24T13:53:12.858Z,27.60
2018-08-24T13:55:40.901Z,28.00
2018-08-24T13:58:08.988Z,28.10
2018-08-24T14:00:36.767Z,27.70
2018-08-24T14:03:07.926Z,26.60
2018-08-24T14:05:35.750Z,26.20
2018-08-24T14:08:03.476Z,26.40
2018-08-24T14:10:31.199Z,25.60
2018-08-24T14:12:58.835Z,25.60
2018-08-24T14:15:28.275Z,25.60
2018-08-24T14:17:55.918Z,25.60
2018-08-24T14:20:24.895Z,25.60
2018-08-24T14:22:52.690Z,25.70
2018-08-24T14:25:20.514Z,25.30
2018-08-24T14:27:48.380Z,24.80
2018-08-24T14:30:22.304Z,24.80
2018-08-24T14:32:49.987Z,24.80
2018-08-24T14:35:17.645Z,24.70
2018-08-24T14:37:45.321Z,25.60
2018-08-24T14:40:33.847Z,24.50
2018-08-24T14:43:01.723Z,24.90
2018-08-24T14:45:29.325Z,24.70
2018-08-24T14:47:57.504Z,24.60
2018-08-24T14:50:25.447Z,24.60
2018-08-24T14:52:53.169Z,24.60
2018-08-24T14:55:21.066Z,23.50
2018-08-24T14:57:49.625Z,24.00
2018-08-24T15:00:17.842Z,23.40
2018-08-24T15:02:46.371Z,22.30
2018-08-24T15:05:14.150Z,22.60
2018-08-24T15:07:41.834Z,22.10
2018-08-24T15:10:10.716Z,22.00
2018-08-24T15:12:39.541Z,20.60
2018-08-24T15:15:07.627Z,19.50
2018-08-24T15:17:36.318Z,18.50
2018-08-24T15:20:05.636Z,17.40
2018-08-24T15:22:33.640Z,16.50
2018-08-24T15:25:02.711Z,16.70
2018-08-24T15:27:30.339Z,16.20
2018-08-24T15:29:58.448Z,16.20
2018-08-24T15:32:26.515Z,16.10
2018-08-24T15:34:54.177Z,15.90
2018-08-24T15:37:21.844Z,15.90
2018-08-24T15:39:49.597Z,15.50
2018-08-24T15:42:17.496Z,15.40
2018-08-24T15:44:45.281Z,15.50
2018-08-24T15:47:13.103Z,15.20
2018-08-24T15:49:40.750Z,14.70
2018-08-24T15:52:08.324Z,15.10
2018-08-24T15:54:36.137Z,15.00
2018-08-24T15:57:03.923Z,15.10
2018-08-24T15:59:31.958Z,15.30
2018-08-24T16:01:59.800Z,15.20
2018-08-24T16:04:27.459Z,15.50
2018-08-24T16:06:55.670Z,15.60
2018-08-24T16:09:23.833Z,15.60
2018-08-24T16:11:52.678Z,15.90
2018-08-24T16:14:20.459Z,16.20
2018-08-24T16:16:48.024Z,17.10
2018-08-24T16:19:15.765Z,17.20
2018-08-24T16:21:43.415Z,18.40
2018-08-24T16:24:11.459Z,18.70
2018-08-24T16:26:39.405Z,19.00
2018-08-24T16:29:07.414Z,18.70
2018-08-24T16:31:35.078Z,18.90
2018-08-24T16:34:02.906Z,18.40
2018-08-24T16:36:31.429Z,18.90
2018-08-24T16:38:59.556Z,19.20
2018-08-24T16:41:27.314Z,19.30
2018-08-24T16:43:54.912Z,18.80
2018-08-24T16:46:23.335Z,19.40
2018-08-24T16:48:51.189Z,19.80
2018-08-24T16:51:19.683Z,19.50
2018-08-24T16:53:47.385Z,19.90
2018-08-24T16:56:16.263Z,19.60
2018-08-24T16:58:44.263Z,19.40
2018-08-24T17:01:12.023Z,19.50
2018-08-24T17:03:39.875Z,19.70
2018-08-24T17:06:07.736Z,19.30
2018-08-24T17:08:35.486Z,19.60
2018-08-24T17:11:03.288Z,19.70
2018-08-24T17:13:31.551Z,19.00
2018-08-24T17:16:00.189Z,18.60
2018-08-24T17:18:27.932Z,18.70
2018-08-24T17:20:55.654Z,18.90
2018-08-24T17:23:23.551Z,19.00
2018-08-24T17:25:51.351Z,19.00
2018-08-24T17:28:19.053Z,19.10
2018-08-24T17:30:47.897Z,19.20
2018-08-24T17:33:15.663Z,19.10
2018-08-24T17:35:43.489Z,19.20
2018-08-24T17:38:11.131Z,19.10
2018-08-24T17:40:39.664Z,19.10
2018-08-24T17:43:08.149Z,19.20
2018-08-24T17:45:37.692Z,19.30
2018-08-24T17:48:05.689Z,19.20
2018-08-24T17:50:34.000Z,19.20
2018-08-24T17:53:02.887Z,19.30
2018-08-24T17:55:31.046Z,19.30
2018-08-24T17:57:58.976Z,19.50
2018-08-24T18:00:26.753Z,19.50
2018-08-24T18:02:54.485Z,19.60
2018-08-24T18:05:22.214Z,19.80
2018-08-24T18:07:49.885Z,19.50
2018-08-24T18:10:17.500Z,19.50
2018-08-24T18:12:45.644Z,20.30
2018-08-24T18:15:27.178Z,19.60
2018-08-24T18:17:54.923Z,19.60
2018-08-24T18:20:25.083Z,19.50
2018-08-24T18:22:52.983Z,19.70
2018-08-24T18:25:20.843Z,20.20
2018-08-24T18:27:48.557Z,19.80
2018-08-24T18:30:16.642Z,19.80
2018-08-24T18:32:44.593Z,19.90
2018-08-24T18:35:14.776Z,19.90
2018-08-24T18:37:42.911Z,19.90
2018-08-24T18:40:10.765Z,19.70
2018-08-24T18:42:38.518Z,19.40
2018-08-24T18:45:06.171Z,19.70
2018-08-24T18:47:33.758Z,20.20
2018-08-24T18:50:01.389Z,20.00
2018-08-24T18:52:29.003Z,19.90
2018-08-24T18:54:56.836Z,19.50
2018-08-24T18:57:24.508Z,19.30
2018-08-24T18:59:52.174Z,19.20
2018-08-24T19:02:19.866Z,19.10
2018-08-24T19:04:49.468Z,19.00
2018-08-24T19:07:17.140Z,18.80
2018-08-24T19:09:44.963Z,18.30
2018-08-24T19:12:18.252Z,18.80
2018-08-24T19:14:45.983Z,18.00
2018-08-24T19:17:19.470Z,17.90
2018-08-24T19:19:52.730Z,18.10
2018-08-24T19:22:20.989Z,17.10
2018-08-24T19:24:48.691Z,16.60
2018-08-24T19:27:17.563Z,16.50
2018-08-24T19:29:51.014Z,16.50
2018-08-24T19:32:19.976Z,16.50
2018-08-24T19:34:47.591Z,16.50
2018-08-24T19:37:15.428Z,16.40
2018-08-24T19:39:48.080Z,16.30
2018-08-24T19:42:21.468Z,16.30
2018-08-24T19:44:49.850Z,16.20
2018-08-24T19:47:24.299Z,16.20
2018-08-24T19:49:52.662Z,16.20
2018-08-24T19:52:20.520Z,16.20
2018-08-24T19:54:48.346Z,16.20
2018-08-24T19:57:21.767Z,16.20
2018-08-24T19:59:49.492Z,16.20
2018-08-24T20:04:58.029Z,16.20
2018-08-24T20:07:32.463Z,16.20
2018-08-24T20:10:05.280Z,16.30
2018-08-24T20:12:33.053Z,16.20
2018-08-24T20:15:06.311Z,16.30
2018-08-24T20:17:34.097Z,16.60
2018-08-24T20:20:02.284Z,16.50
2018-08-24T20:22:31.339Z,16.70
2018-08-24T20:24:59.444Z,16.50
2018-08-24T20:27:28.224Z,16.30
2018-08-24T20:29:55.885Z,16.30
2018-08-24T20:32:23.649Z,16.30
2018-08-24T20:34:54.697Z,16.20
2018-08-24T20:37:23.041Z,16.20
2018-08-24T20:39:52.953Z,16.80
2018-08-24T20:42:20.719Z,16.20
2018-08-24T20:44:49.040Z,16.20
2018-08-24T20:47:16.844Z,16.30
2018-08-24T20:49:44.527Z,16.20
2018-08-24T20:52:12.179Z,16.20
2018-08-24T20:54:40.017Z,16.10
2018-08-24T20:57:07.679Z,16.10
2018-08-24T20:59:35.494Z,16.10
2018-08-24T21:02:03.142Z,16.00
2018-08-24T21:04:30.879Z,16.00
2018-08-24T21:06:58.710Z,16.00
2018-08-24T21:09:26.850Z,15.90
2018-08-24T21:11:54.705Z,15.90
2018-08-24T21:14:22.627Z,15.90
2018-08-24T21:16:51.022Z,15.90
2018-08-24T21:19:18.928Z,15.90
2018-08-24T21:21:46.611Z,15.90
2018-08-24T21:24:14.345Z,15.90
2018-08-24T21:26:42.024Z,15.90
2018-08-24T21:29:10.069Z,15.90
2018-08-24T21:31:37.693Z,16.20
2018-08-24T21:34:05.352Z,16.30
2018-08-24T21:36:32.987Z,16.40
2018-08-24T21:39:00.683Z,16.50
2018-08-24T21:41:41.530Z,16.60
2018-08-24T21:44:09.741Z,16.80
2018-08-24T21:46:37.735Z,16.80
2018-08-24T21:49:06.024Z,16.80
2018-08-24T21:51:34.568Z,16.80
2018-08-24T21:54:02.515Z,16.90
2018-08-24T21:56:30.788Z,16.60
2018-08-24T21:58:58.809Z,16.90
2018-08-24T22:01:27.058Z,17.10
2018-08-24T22:03:55.042Z,17.00
2018-08-24T22:06:22.820Z,17.10
2018-08-24T22:08:52.573Z,17.30
2018-08-24T22:11:20.275Z,17.40
2018-08-24T22:13:47.994Z,17.60
2018-08-24T22:16:15.680Z,17.40
2018-08-24T22:18:43.550Z,17.70
2018-08-24T22:21:11.209Z,17.60
2018-08-24T22:23:38.912Z,17.70
2018-08-24T22:26:06.806Z,17.80
2018-08-24T22:28:35.057Z,18.00
2018-08-24T22:31:02.976Z,18.10
2018-08-24T22:33:30.711Z,18.30
2018-08-24T22:35:58.476Z,18.20
2018-08-24T22:38:26.323Z,17.80
2018-08-24T22:40:53.986Z,18.00
2018-08-24T22:43:27.497Z,18.00
2018-08-24T22:45:56.914Z,18.30
2018-08-24T22:48:24.664Z,18.40
2018-08-24T22:50:52.956Z,18.30
2018-08-24T22:53:24.724Z,18.00
2018-08-24T22:55:52.477Z,18.10
2018-08-24T22:58:20.524Z,18.10
2018-08-24T23:00:48.930Z,18.70
2018-08-24T23:03:18.045Z,17.90
2018-08-24T23:05:45.784Z,18.00
2018-08-24T23:08:14.067Z,17.70
2018-08-24T23:10:42.085Z,17.80
2018-08-24T23:13:09.954Z,18.30
2018-08-24T23:15:38.404Z,17.70
2018-08-24T23:18:07.076Z,17.50
2018-08-24T23:20:34.926Z,17.40
2018-08-24T23:23:04.491Z,17.30
2018-08-24T23:25:34.150Z,17.30
2018-08-24T23:28:02.448Z,17.30
2018-08-24T23:30:30.435Z,17.50
2018-08-24T23:32:58.693Z,17.40
2018-08-24T23:35:26.783Z,17.60
2018-08-24T23:37:55.698Z,16.80
2018-08-24T23:40:24.354Z,17.30
2018-08-24T23:42:52.954Z,17.20
2018-08-24T23:45:21.576Z,17.50
2018-08-24T23:47:49.507Z,17.50
2018-08-24T23:50:17.491Z,17.70
2018-08-24T23:55:21.021Z,17.90
2018-08-24T23:57:49.844Z,18.10
